sensor_id;sensor_type;location;lat;lon;timestamp;temperature;humidity
8736;DHT22;4404;49.308;12.178;2022-12-07T00:03:05;4.90;99.90
8736;DHT22;4404;49.308;12.178;2022-12-07T00:09:11;4.90;99.90
8736;DHT22;4404;49.308;12.178;2022-12-07T00:15:16;4.90;99.90
8736;DHT22;4404;49.308;12.178;2022-12-07T00:21:20;4.90;99.90
8736;DHT22;4404;49.308;12.178;2022-12-07T00:27:23;4.90;99.90
8736;DHT22;4404;49.308;12.178;2022-12-07T00:33:27;5.00;99.90
8736;DHT22;4404;49.308;12.178;2022-12-07T00:39:30;5.00;99.90
8736;DHT22;4404;49.308;12.178;2022-12-07T00:45:32;4.90;99.90
8736;DHT22;4404;49.308;12.178;2022-12-07T00:51:36;4.90;99.90
8736;DHT22;4404;49.308;12.178;2022-12-07T00:57:38;4.90;99.90
8736;DHT22;4404;49.308;12.178;2022-12-07T01:03:41;4.90;99.90
8736;DHT22;4404;49.308;12.178;2022-12-07T01:09:45;4.90;99.90
8736;DHT22;4404;49.308;12.178;2022-12-07T01:15:48;4.90;99.90
8736;DHT22;4404;49.308;12.178;2022-12-07T01:21:50;4.90;99.90
8736;DHT22;4404;49.308;12.178;2022-12-07T01:27:54;4.90;99.90
8736;DHT22;4404;49.308;12.178;2022-12-07T01:33:58;4.90;99.90
8736;DHT22;4404;49.308;12.178;2022-12-07T01:40:03;4.90;99.90
8736;DHT22;4404;49.308;12.178;2022-12-07T01:46:08;4.90;99.90
8736;DHT22;4404;49.308;12.178;2022-12-07T01:52:16;4.80;99.90
8736;DHT22;4404;49.308;12.178;2022-12-07T01:58:20;4.80;99.90
8736;DHT22;4404;49.308;12.178;2022-12-07T02:04:24;4.80;99.90
8736;DHT22;4404;49.308;12.178;2022-12-07T02:10:29;4.80;99.90
8736;DHT22;4404;49.308;12.178;2022-12-07T02:16:41;4.80;99.90
8736;DHT22;4404;49.308;12.178;2022-12-07T02:29:58;4.80;99.90
8736;DHT22;4404;49.308;12.178;2022-12-07T02:36:05;4.70;99.90
8736;DHT22;4404;49.308;12.178;2022-12-07T02:42:15;4.80;99.90
8736;DHT22;4404;49.308;12.178;2022-12-07T02:48:21;4.70;99.90
8736;DHT22;4404;49.308;12.178;2022-12-07T02:54:23;4.70;99.90
8736;DHT22;4404;49.308;12.178;2022-12-07T03:00:26;4.60;99.90
8736;DHT22;4404;49.308;12.178;2022-12-07T03:06:32;4.70;99.90
8736;DHT22;4404;49.308;12.178;2022-12-07T03:12:43;4.70;99.90
8736;DHT22;4404;49.308;12.178;2022-12-07T03:18:52;4.70;99.90
8736;DHT22;4404;49.308;12.178;2022-12-07T03:24:58;4.70;99.90
8736;DHT22;4404;49.308;12.178;2022-12-07T03:31:07;4.70;99.90
8736;DHT22;4404;49.308;12.178;2022-12-07T03:37:17;4.60;99.90
8736;DHT22;4404;49.308;12.178;2022-12-07T03:43:22;4.60;99.90
8736;DHT22;4404;49.308;12.178;2022-12-07T03:49:28;4.60;99.90
8736;DHT22;4404;49.308;12.178;2022-12-07T03:55:36;4.70;99.90
8736;DHT22;4404;49.308;12.178;2022-12-07T04:01:43;4.70;99.90
8736;DHT22;4404;49.308;12.178;2022-12-07T04:07:46;4.70;99.90
8736;DHT22;4404;49.308;12.178;2022-12-07T04:13:49;4.70;99.90
8736;DHT22;4404;49.308;12.178;2022-12-07T04:20:12;4.70;99.90
8736;DHT22;4404;49.308;12.178;2022-12-07T04:26:14;4.60;99.90
8736;DHT22;4404;49.308;12.178;2022-12-07T04:32:17;4.60;99.90
8736;DHT22;4404;49.308;12.178;2022-12-07T04:38:21;4.50;99.90
8736;DHT22;4404;49.308;12.178;2022-12-07T04:44:24;4.50;99.90
8736;DHT22;4404;49.308;12.178;2022-12-07T04:50:27;4.50;99.90
8736;DHT22;4404;49.308;12.178;2022-12-07T04:56:32;4.40;99.90
8736;DHT22;4404;49.308;12.178;2022-12-07T05:02:35;4.40;99.90
8736;DHT22;4404;49.308;12.178;2022-12-07T05:08:38;4.30;99.90
8736;DHT22;4404;49.308;12.178;2022-12-07T05:14:42;4.20;99.90
8736;DHT22;4404;49.308;12.178;2022-12-07T05:20:45;4.10;99.90
8736;DHT22;4404;49.308;12.178;2022-12-07T05:26:47;4.10;99.90
8736;DHT22;4404;49.308;12.178;2022-12-07T05:32:51;4.10;99.90
8736;DHT22;4404;49.308;12.178;2022-12-07T05:38:54;4.10;99.90
8736;DHT22;4404;49.308;12.178;2022-12-07T05:44:56;4.10;99.90
8736;DHT22;4404;49.308;12.178;2022-12-07T05:51:00;4.00;99.90
8736;DHT22;4404;49.308;12.178;2022-12-07T05:57:03;4.00;99.90
8736;DHT22;4404;49.308;12.178;2022-12-07T06:03:05;4.00;99.90
8736;DHT22;4404;49.308;12.178;2022-12-07T06:09:09;4.00;99.90
8736;DHT22;4404;49.308;12.178;2022-12-07T06:15:13;4.00;99.90
8736;DHT22;4404;49.308;12.178;2022-12-07T06:21:15;4.00;99.90
8736;DHT22;4404;49.308;12.178;2022-12-07T06:27:19;4.00;99.90
8736;DHT22;4404;49.308;12.178;2022-12-07T06:33:22;4.00;99.90
8736;DHT22;4404;49.308;12.178;2022-12-07T06:39:26;4.00;99.90
8736;DHT22;4404;49.308;12.178;2022-12-07T06:45:30;4.00;99.90
8736;DHT22;4404;49.308;12.178;2022-12-07T06:51:33;4.00;99.90
8736;DHT22;4404;49.308;12.178;2022-12-07T06:57:37;4.00;99.90
8736;DHT22;4404;49.308;12.178;2022-12-07T07:03:41;4.00;99.90
8736;DHT22;4404;49.308;12.178;2022-12-07T07:09:43;4.10;99.90
8736;DHT22;4404;49.308;12.178;2022-12-07T07:15:46;4.00;99.90
8736;DHT22;4404;49.308;12.178;2022-12-07T07:21:50;4.00;99.90
8736;DHT22;4404;49.308;12.178;2022-12-07T07:27:52;4.00;99.90
8736;DHT22;4404;49.308;12.178;2022-12-07T07:33:55;4.00;99.90
8736;DHT22;4404;49.308;12.178;2022-12-07T07:39:59;4.00;99.90
8736;DHT22;4404;49.308;12.178;2022-12-07T07:46:01;4.00;99.90
8736;DHT22;4404;49.308;12.178;2022-12-07T07:52:05;4.10;99.90
8736;DHT22;4404;49.308;12.178;2022-12-07T07:58:09;4.20;99.90
8736;DHT22;4404;49.308;12.178;2022-12-07T08:04:12;4.10;99.90
8736;DHT22;4404;49.308;12.178;2022-12-07T08:10:14;4.10;99.90
8736;DHT22;4404;49.308;12.178;2022-12-07T08:16:18;4.10;99.90
8736;DHT22;4404;49.308;12.178;2022-12-07T08:22:21;4.00;99.90
8736;DHT22;4404;49.308;12.178;2022-12-07T08:28:23;4.10;99.90
8736;DHT22;4404;49.308;12.178;2022-12-07T08:34:27;4.10;99.90
8736;DHT22;4404;49.308;12.178;2022-12-07T08:40:29;4.10;99.90
8736;DHT22;4404;49.308;12.178;2022-12-07T08:46:34;4.20;99.90
8736;DHT22;4404;49.308;12.178;2022-12-07T08:52:40;4.20;99.90
8736;DHT22;4404;49.308;12.178;2022-12-07T08:58:43;4.30;99.90
8736;DHT22;4404;49.308;12.178;2022-12-07T09:04:46;4.30;99.90
8736;DHT22;4404;49.308;12.178;2022-12-07T09:10:50;4.30;99.90
8736;DHT22;4404;49.308;12.178;2022-12-07T09:16:53;4.30;99.90
8736;DHT22;4404;49.308;12.178;2022-12-07T09:22:55;4.40;99.90
8736;DHT22;4404;49.308;12.178;2022-12-07T09:28:59;4.30;99.90
8736;DHT22;4404;49.308;12.178;2022-12-07T09:35:01;4.40;99.90
8736;DHT22;4404;49.308;12.178;2022-12-07T09:41:05;4.40;99.90
8736;DHT22;4404;49.308;12.178;2022-12-07T09:47:10;4.50;99.90
8736;DHT22;4404;49.308;12.178;2022-12-07T09:53:24;4.50;99.90
8736;DHT22;4404;49.308;12.178;2022-12-07T09:59:29;4.50;99.90
8736;DHT22;4404;49.308;12.178;2022-12-07T10:05:36;4.50;99.90
8736;DHT22;4404;49.308;12.178;2022-12-07T10:12:01;4.50;99.90
8736;DHT22;4404;49.308;12.178;2022-12-07T10:18:18;4.60;99.90
8736;DHT22;4404;49.308;12.178;2022-12-07T10:24:24;4.60;99.90
8736;DHT22;4404;49.308;12.178;2022-12-07T10:30:26;4.60;99.90
8736;DHT22;4404;49.308;12.178;2022-12-07T10:36:37;4.60;99.90
8736;DHT22;4404;49.308;12.178;2022-12-07T10:42:41;4.60;99.90
8736;DHT22;4404;49.308;12.178;2022-12-07T10:48:50;4.70;99.90
8736;DHT22;4404;49.308;12.178;2022-12-07T10:55:08;4.80;99.90
8736;DHT22;4404;49.308;12.178;2022-12-07T11:01:24;4.90;99.90
8736;DHT22;4404;49.308;12.178;2022-12-07T11:07:38;4.80;99.90
8736;DHT22;4404;49.308;12.178;2022-12-07T11:13:51;4.90;99.90
8736;DHT22;4404;49.308;12.178;2022-12-07T11:20:11;4.90;99.90
8736;DHT22;4404;49.308;12.178;2022-12-07T11:26:31;4.90;99.90
8736;DHT22;4404;49.308;12.178;2022-12-07T11:32:52;4.90;99.90
8736;DHT22;4404;49.308;12.178;2022-12-07T11:39:23;4.90;99.90
8736;DHT22;4404;49.308;12.178;2022-12-07T11:51:53;4.90;99.90
8736;DHT22;4404;49.308;12.178;2022-12-07T11:58:04;4.90;99.90
8736;DHT22;4404;49.308;12.178;2022-12-07T12:04:27;4.90;99.90
8736;DHT22;4404;49.308;12.178;2022-12-07T12:10:41;5.00;99.90
8736;DHT22;4404;49.308;12.178;2022-12-07T12:17:05;5.00;99.90
8736;DHT22;4404;49.308;12.178;2022-12-07T12:23:20;5.00;99.90
8736;DHT22;4404;49.308;12.178;2022-12-07T12:29:27;5.00;99.90
8736;DHT22;4404;49.308;12.178;2022-12-07T12:35:35;5.00;99.90
8736;DHT22;4404;49.308;12.178;2022-12-07T12:41:54;5.10;99.90
8736;DHT22;4404;49.308;12.178;2022-12-07T12:48:27;5.10;99.90
8736;DHT22;4404;49.308;12.178;2022-12-07T12:54:33;5.10;99.90
8736;DHT22;4404;49.308;12.178;2022-12-07T13:00:36;5.10;99.90
8736;DHT22;4404;49.308;12.178;2022-12-07T13:06:41;5.20;99.90
8736;DHT22;4404;49.308;12.178;2022-12-07T13:12:55;5.20;99.90
8736;DHT22;4404;49.308;12.178;2022-12-07T13:18:59;5.20;99.90
8736;DHT22;4404;49.308;12.178;2022-12-07T13:25:05;5.20;99.90
8736;DHT22;4404;49.308;12.178;2022-12-07T13:31:20;5.30;99.90
8736;DHT22;4404;49.308;12.178;2022-12-07T13:37:28;5.30;99.90
8736;DHT22;4404;49.308;12.178;2022-12-07T13:43:43;5.20;99.90
8736;DHT22;4404;49.308;12.178;2022-12-07T13:49:50;5.20;99.90
8736;DHT22;4404;49.308;12.178;2022-12-07T13:55:55;5.20;99.90
8736;DHT22;4404;49.308;12.178;2022-12-07T14:01:57;5.20;99.90
8736;DHT22;4404;49.308;12.178;2022-12-07T14:08:02;5.20;99.90
8736;DHT22;4404;49.308;12.178;2022-12-07T14:14:06;5.20;99.90
8736;DHT22;4404;49.308;12.178;2022-12-07T14:20:29;5.20;99.90
8736;DHT22;4404;49.308;12.178;2022-12-07T14:26:33;5.30;99.90
8736;DHT22;4404;49.308;12.178;2022-12-07T14:32:37;5.30;99.90
8736;DHT22;4404;49.308;12.178;2022-12-07T14:38:39;5.40;99.90
8736;DHT22;4404;49.308;12.178;2022-12-07T14:44:43;5.40;99.90
8736;DHT22;4404;49.308;12.178;2022-12-07T14:50:49;5.30;99.90
8736;DHT22;4404;49.308;12.178;2022-12-07T14:56:53;5.40;99.90
8736;DHT22;4404;49.308;12.178;2022-12-07T15:02:57;5.30;99.90
8736;DHT22;4404;49.308;12.178;2022-12-07T15:08:59;5.40;99.90
8736;DHT22;4404;49.308;12.178;2022-12-07T15:15:02;5.30;99.90
8736;DHT22;4404;49.308;12.178;2022-12-07T15:21:09;5.30;99.90
8736;DHT22;4404;49.308;12.178;2022-12-07T15:27:12;5.40;99.90
8736;DHT22;4404;49.308;12.178;2022-12-07T15:33:14;5.30;99.90
8736;DHT22;4404;49.308;12.178;2022-12-07T15:39:19;5.30;99.90
8736;DHT22;4404;49.308;12.178;2022-12-07T15:45:22;5.30;99.90
8736;DHT22;4404;49.308;12.178;2022-12-07T15:51:24;5.30;99.90
8736;DHT22;4404;49.308;12.178;2022-12-07T15:57:28;5.10;99.90
8736;DHT22;4404;49.308;12.178;2022-12-07T16:03:30;4.90;99.90
8736;DHT22;4404;49.308;12.178;2022-12-07T16:09:32;4.70;99.90
8736;DHT22;4404;49.308;12.178;2022-12-07T16:15:39;4.70;99.90
8736;DHT22;4404;49.308;12.178;2022-12-07T16:21:41;4.60;99.90
8736;DHT22;4404;49.308;12.178;2022-12-07T16:27:43;4.60;99.90
8736;DHT22;4404;49.308;12.178;2022-12-07T16:33:47;4.60;99.90
8736;DHT22;4404;49.308;12.178;2022-12-07T16:39:49;4.60;99.90
8736;DHT22;4404;49.308;12.178;2022-12-07T16:45:52;4.50;99.90
8736;DHT22;4404;49.308;12.178;2022-12-07T16:51:55;4.50;99.90
8736;DHT22;4404;49.308;12.178;2022-12-07T16:57:57;4.50;99.90
8736;DHT22;4404;49.308;12.178;2022-12-07T17:04:00;4.50;99.90
8736;DHT22;4404;49.308;12.178;2022-12-07T17:10:04;4.50;99.90
8736;DHT22;4404;49.308;12.178;2022-12-07T17:16:07;4.50;99.90
8736;DHT22;4404;49.308;12.178;2022-12-07T17:22:09;4.50;99.90
8736;DHT22;4404;49.308;12.178;2022-12-07T17:28:14;4.50;99.90
8736;DHT22;4404;49.308;12.178;2022-12-07T17:34:16;4.50;99.90
8736;DHT22;4404;49.308;12.178;2022-12-07T17:40:18;4.60;99.90
8736;DHT22;4404;49.308;12.178;2022-12-07T17:46:22;4.60;99.90
8736;DHT22;4404;49.308;12.178;2022-12-07T17:52:24;4.60;99.90
8736;DHT22;4404;49.308;12.178;2022-12-07T17:58:43;4.60;99.90
8736;DHT22;4404;49.308;12.178;2022-12-07T18:04:47;4.60;99.90
8736;DHT22;4404;49.308;12.178;2022-12-07T18:10:49;4.50;99.90
8736;DHT22;4404;49.308;12.178;2022-12-07T18:16:51;4.40;99.90
8736;DHT22;4404;49.308;12.178;2022-12-07T18:22:54;4.30;99.90
8736;DHT22;4404;49.308;12.178;2022-12-07T18:28:58;4.30;99.90
8736;DHT22;4404;49.308;12.178;2022-12-07T18:35:00;4.20;99.90
8736;DHT22;4404;49.308;12.178;2022-12-07T18:41:06;4.20;99.90
8736;DHT22;4404;49.308;12.178;2022-12-07T18:47:08;4.30;99.90
8736;DHT22;4404;49.308;12.178;2022-12-07T18:53:11;4.30;99.90
8736;DHT22;4404;49.308;12.178;2022-12-07T18:59:14;4.40;99.90
8736;DHT22;4404;49.308;12.178;2022-12-07T19:05:35;4.40;99.90
8736;DHT22;4404;49.308;12.178;2022-12-07T19:11:37;4.40;99.90
8736;DHT22;4404;49.308;12.178;2022-12-07T19:17:52;4.30;99.90
8736;DHT22;4404;49.308;12.178;2022-12-07T19:23:54;4.30;99.90
8736;DHT22;4404;49.308;12.178;2022-12-07T19:29:57;4.30;99.90
8736;DHT22;4404;49.308;12.178;2022-12-07T19:36:01;4.40;99.90
8736;DHT22;4404;49.308;12.178;2022-12-07T19:42:03;4.40;99.90
8736;DHT22;4404;49.308;12.178;2022-12-07T19:48:06;4.50;99.90
8736;DHT22;4404;49.308;12.178;2022-12-07T19:54:10;4.50;99.90
8736;DHT22;4404;49.308;12.178;2022-12-07T20:00:14;4.50;99.90
8736;DHT22;4404;49.308;12.178;2022-12-07T20:06:18;4.50;99.90
8736;DHT22;4404;49.308;12.178;2022-12-07T20:12:22;4.50;99.90
8736;DHT22;4404;49.308;12.178;2022-12-07T20:18:42;4.50;99.90
8736;DHT22;4404;49.308;12.178;2022-12-07T20:24:44;4.40;99.90
8736;DHT22;4404;49.308;12.178;2022-12-07T20:30:48;4.30;99.90
8736;DHT22;4404;49.308;12.178;2022-12-07T20:36:51;4.30;99.90
8736;DHT22;4404;49.308;12.178;2022-12-07T20:42:53;4.40;99.90
8736;DHT22;4404;49.308;12.178;2022-12-07T20:48:58;4.40;99.90
8736;DHT22;4404;49.308;12.178;2022-12-07T20:55:01;4.50;99.90
8736;DHT22;4404;49.308;12.178;2022-12-07T21:01:03;4.50;99.90
8736;DHT22;4404;49.308;12.178;2022-12-07T21:07:07;4.50;99.90
8736;DHT22;4404;49.308;12.178;2022-12-07T21:13:09;4.50;99.90
8736;DHT22;4404;49.308;12.178;2022-12-07T21:19:11;4.50;99.90
8736;DHT22;4404;49.308;12.178;2022-12-07T21:25:15;4.50;99.90
8736;DHT22;4404;49.308;12.178;2022-12-07T21:31:17;4.60;99.90
8736;DHT22;4404;49.308;12.178;2022-12-07T21:37:20;4.50;99.90
8736;DHT22;4404;49.308;12.178;2022-12-07T21:43:24;4.50;99.90
8736;DHT22;4404;49.308;12.178;2022-12-07T21:49:26;4.50;99.90
8736;DHT22;4404;49.308;12.178;2022-12-07T21:55:28;4.50;99.90
8736;DHT22;4404;49.308;12.178;2022-12-07T22:01:34;4.40;99.90
8736;DHT22;4404;49.308;12.178;2022-12-07T22:07:37;4.40;99.90
8736;DHT22;4404;49.308;12.178;2022-12-07T22:13:42;4.30;99.90
8736;DHT22;4404;49.308;12.178;2022-12-07T22:20:05;4.30;99.90
8736;DHT22;4404;49.308;12.178;2022-12-07T22:26:10;4.40;99.90
8736;DHT22;4404;49.308;12.178;2022-12-07T22:32:14;4.40;99.90
8736;DHT22;4404;49.308;12.178;2022-12-07T22:38:18;4.40;99.90
8736;DHT22;4404;49.308;12.178;2022-12-07T22:44:20;4.50;99.90
8736;DHT22;4404;49.308;12.178;2022-12-07T22:50:22;4.50;99.90
8736;DHT22;4404;49.308;12.178;2022-12-07T22:56:26;4.50;99.90
8736;DHT22;4404;49.308;12.178;2022-12-07T23:02:28;4.50;99.90
8736;DHT22;4404;49.308;12.178;2022-12-07T23:08:30;4.50;99.90
8736;DHT22;4404;49.308;12.178;2022-12-07T23:14:35;4.40;99.90
8736;DHT22;4404;49.308;12.178;2022-12-07T23:20:38;4.40;99.90
8736;DHT22;4404;49.308;12.178;2022-12-07T23:26:41;4.40;99.90
8736;DHT22;4404;49.308;12.178;2022-12-07T23:32:45;4.40;99.90
8736;DHT22;4404;49.308;12.178;2022-12-07T23:38:49;4.40;99.90
8736;DHT22;4404;49.308;12.178;2022-12-07T23:44:51;4.40;99.90
8736;DHT22;4404;49.308;12.178;2022-12-07T23:50:57;4.40;99.90
8736;DHT22;4404;49.308;12.178;2022-12-07T23:56:59;4.40;99.90
